Time;durP1;ratioP1;P1;durP2;ratioP2;P2;SDS_P1;SDS_P2;PMS_P1;PMS_P2;Temp;Humidity;BMP_temperature;BMP_pressure;BME280_temperature;BME280_humidity;BME280_pressure;Samples;Min_cycle;Max_cycle;Signal;HPM_P1;HPM_P2
2022/07/04 00:01:18;;;;;;;1.92;1.02;;;;;;;23.29;40.30;101327.28;5023358;28;20040;-54
2022/07/04 00:03:44;;;;;;;1.75;1.13;;;;;;;23.45;39.69;101325.31;5013558;28;20030;-55
2022/07/04 00:06:10;;;;;;;2.30;0.80;;;;;;;23.18;39.80;101328.41;5012086;28;20037;-53
2022/07/04 00:08:36;;;;;;;1.30;0.90;;;;;;;23.14;40.44;101330.06;5011720;28;20030;-53
2022/07/04 00:11:03;;;;;;;1.80;0.73;;;;;;;23.04;40.76;101328.22;5011656;28;20022;-54
2022/07/04 00:13:29;;;;;;;2.13;0.90;;;;;;;23.11;40.00;101322.44;5011814;28;20080;-53
2022/07/04 00:15:55;;;;;;;3.85;1.10;;;;;;;23.12;40.64;101316.69;5011482;28;20037;-54
2022/07/04 00:18:21;;;;;;;0.90;0.80;;;;;;;23.17;40.78;101313.94;5010987;28;20444;-54
2022/07/04 00:20:47;;;;;;;1.65;0.80;;;;;;;23.08;40.50;101312.06;4994802;28;20391;-53
2022/07/04 00:23:14;;;;;;;2.25;1.25;;;;;;;22.94;40.72;101321.94;4999196;28;20025;-53
2022/07/04 00:25:40;;;;;;;1.33;0.90;;;;;;;22.93;41.27;101321.09;5014731;28;20037;-54
2022/07/04 00:28:06;;;;;;;2.72;1.67;;;;;;;22.44;41.38;101320.91;5011236;28;20030;-54
2022/07/04 00:30:32;;;;;;;2.47;0.80;;;;;;;22.24;42.30;101306.16;5011583;28;20049;-55
2022/07/04 00:32:59;;;;;;;0.93;0.60;;;;;;;22.05;42.75;101319.50;5011385;28;20073;-54
2022/07/04 00:35:25;;;;;;;1.45;0.70;;;;;;;21.97;43.26;101311.84;5011789;28;20030;-55
2022/07/04 00:37:51;;;;;;;3.65;0.80;;;;;;;22.06;43.31;101312.13;5011139;28;20064;-54
2022/07/04 00:40:17;;;;;;;1.52;0.85;;;;;;;22.07;42.99;101311.03;5011440;28;20034;-55
2022/07/04 00:42:43;;;;;;;1.25;0.52;;;;;;;21.83;43.08;101303.38;5023895;28;20079;-54
2022/07/04 00:45:10;;;;;;;1.08;0.63;;;;;;;21.61;43.90;101313.69;5031108;28;20021;-55
2022/07/04 00:47:36;;;;;;;2.03;0.65;;;;;;;21.70;43.65;101303.88;5023872;28;20028;-55
2022/07/04 00:50:03;;;;;;;2.28;0.73;;;;;;;21.74;44.21;101307.72;5012560;28;20045;-56
2022/07/04 00:52:29;;;;;;;0.75;0.63;;;;;;;21.82;44.30;101309.94;5015252;28;20101;-53
2022/07/04 00:54:55;;;;;;;1.27;0.75;;;;;;;22.00;43.73;101305.84;5014579;28;20061;-55
2022/07/04 00:57:22;;;;;;;1.42;0.60;;;;;;;21.74;44.21;101309.63;5013950;28;20429;-55
2022/07/04 00:59:48;;;;;;;3.03;0.70;;;;;;;21.90;43.93;101315.94;5014108;28;20434;-52
2022/07/04 01:02:15;;;;;;;2.50;0.70;;;;;;;21.70;44.13;101294.91;5014748;28;20072;-54
2022/07/04 01:04:42;;;;;;;1.00;0.60;;;;;;;21.78;44.15;101306.09;5014804;28;20037;-54
2022/07/04 01:07:11;;;;;;;1.30;0.73;;;;;;;21.49;44.75;101307.66;5007686;28;20033;-55
2022/07/04 01:09:38;;;;;;;0.90;0.50;;;;;;;21.30;44.56;101304.59;5014100;28;20033;-53
2022/07/04 01:12:05;;;;;;;0.50;0.50;;;;;;;21.37;44.36;101305.16;5014206;28;20482;-55
2022/07/04 01:14:31;;;;;;;1.00;0.70;;;;;;;21.09;44.89;101307.16;5014194;28;20030;-55
2022/07/04 01:16:57;;;;;;;2.22;0.60;;;;;;;21.00;45.82;101302.53;4996248;28;20026;-55
2022/07/04 01:19:23;;;;;;;4.10;1.00;;;;;;;21.03;45.77;101301.97;5008658;28;20364;-54
2022/07/04 01:21:50;;;;;;;2.13;0.75;;;;;;;21.01;45.64;101298.72;5030612;28;20079;-54
2022/07/04 01:24:16;;;;;;;2.17;0.55;;;;;;;20.95;45.43;101295.16;5029934;28;20022;-55
2022/07/04 01:26:42;;;;;;;1.23;0.73;;;;;;;20.72;46.22;101301.00;5034113;28;20029;-54
2022/07/04 01:29:08;;;;;;;1.33;1.02;;;;;;;20.94;45.60;101298.94;5034133;28;20135;-53
2022/07/04 01:31:35;;;;;;;1.45;1.00;;;;;;;20.65;46.03;101297.66;5034203;28;20104;-55
2022/07/04 01:34:01;;;;;;;1.33;0.80;;;;;;;20.49;46.43;101300.31;5013883;28;20056;-54
2022/07/04 01:36:27;;;;;;;1.15;0.60;;;;;;;20.56;46.61;101292.72;5028329;28;20504;-54
2022/07/04 01:38:55;;;;;;;2.00;0.60;;;;;;;20.56;47.27;101294.63;5034108;28;20427;-54
2022/07/04 01:41:21;;;;;;;3.35;0.77;;;;;;;20.77;46.72;101293.69;5027287;28;20032;-54
2022/07/04 01:43:47;;;;;;;1.52;1.00;;;;;;;21.03;45.41;101297.34;5030134;28;20129;-55
2022/07/04 01:46:13;;;;;;;1.73;0.63;;;;;;;20.90;45.26;101284.22;5033244;28;20030;-55
2022/07/04 01:48:40;;;;;;;2.08;0.80;;;;;;;20.78;45.79;101298.03;5023418;28;20095;-54
2022/07/04 01:51:06;;;;;;;2.50;0.80;;;;;;;20.80;46.17;101304.03;5013995;28;20026;-54
2022/07/04 01:53:37;;;;;;;2.35;0.65;;;;;;;20.87;45.81;101297.53;5014638;28;20056;-55
2022/07/04 01:56:03;;;;;;;0.73;0.60;;;;;;;20.95;45.85;101299.78;5024774;28;20060;-54
2022/07/04 01:58:29;;;;;;;0.73;0.50;;;;;;;20.81;46.35;101296.69;5013751;28;20116;-54
2022/07/04 02:03:40;;;;;;;1.43;0.70;;;;;;;21.18;45.00;101303.97;5014199;28;20041;-53
2022/07/04 02:06:06;;;;;;;2.03;0.60;;;;;;;21.35;45.66;101299.97;5013215;28;20129;-55
2022/07/04 02:11:17;;;;;;;1.10;0.70;;;;;;;21.65;44.19;101309.31;5014008;28;20398;-54
2022/07/04 02:13:43;;;;;;;0.93;0.60;;;;;;;21.95;43.52;101310.50;5013335;28;20436;-53
2022/07/04 02:16:09;;;;;;;2.10;0.65;;;;;;;22.20;43.44;101312.44;5013097;28;20030;-54
2022/07/04 02:18:35;;;;;;;1.63;0.52;;;;;;;22.57;42.33;101317.63;5013513;28;20025;-54
2022/07/04 02:21:02;;;;;;;0.40;0.40;;;;;;;22.78;41.63;101319.22;5013440;28;20105;-53
2022/07/04 02:23:28;;;;;;;1.80;0.90;;;;;;;22.52;42.33;101323.88;5013036;28;20026;-53
2022/07/04 02:25:54;;;;;;;1.38;0.70;;;;;;;22.64;42.25;101316.22;5012987;28;20065;-53
2022/07/04 02:28:20;;;;;;;1.23;0.45;;;;;;;22.61;41.91;101329.63;5013115;28;20026;-54
2022/07/04 02:30:47;;;;;;;1.10;0.52;;;;;;;22.27;42.89;101332.91;5013132;28;20022;-53
2022/07/04 02:33:13;;;;;;;1.73;0.90;;;;;;;22.23;42.82;101329.06;5013219;28;20026;-53
2022/07/04 02:35:39;;;;;;;1.20;0.77;;;;;;;22.18;43.23;101326.34;5018991;28;20038;-53
2022/07/04 02:38:05;;;;;;;1.95;0.65;;;;;;;22.18;43.30;101331.81;5023227;28;20037;-52
2022/07/04 02:40:31;;;;;;;2.20;0.88;;;;;;;22.28;43.31;101333.72;5012708;28;20152;-54
2022/07/04 02:42:57;;;;;;;2.63;0.73;;;;;;;21.91;43.71;101326.56;5012806;28;20052;-52
2022/07/04 02:45:24;;;;;;;1.58;0.85;;;;;;;21.52;44.62;101337.06;5013855;28;20033;-53
2022/07/04 02:47:50;;;;;;;0.80;0.50;;;;;;;21.59;44.81;101338.44;5012796;28;20059;-53
2022/07/04 02:50:16;;;;;;;2.13;0.60;;;;;;;21.62;44.96;101337.13;5011969;28;20401;-53
2022/07/04 02:52:42;;;;;;;1.10;0.70;;;;;;;21.34;45.40;101333.75;4967307;23;20052;-54
2022/07/04 02:55:08;;;;;;;1.33;0.70;;;;;;;21.28;45.84;101337.50;4934675;29;20472;-54
2022/07/04 02:57:37;;;;;;;0.93;0.68;;;;;;;20.90;46.17;101335.94;4934607;29;20063;-52
2022/07/04 03:00:03;;;;;;;2.95;0.70;;;;;;;20.43;47.77;101336.66;4935189;29;20123;-54
2022/07/04 03:02:30;;;;;;;2.03;0.70;;;;;;;20.06;49.03;101339.31;4937792;29;20032;-54
2022/07/04 03:04:56;;;;;;;2.97;0.90;;;;;;;19.68;49.56;101341.09;4939086;29;20027;-52
2022/07/04 03:07:22;;;;;;;1.52;0.80;;;;;;;19.48;50.54;101336.19;4933989;29;20031;-54
2022/07/04 03:09:48;;;;;;;2.25;1.08;;;;;;;19.25;51.38;101342.69;4934102;29;20119;-52
2022/07/04 03:12:14;;;;;;;1.50;0.75;;;;;;;18.71;53.08;101353.34;4933025;29;20038;-53
2022/07/04 03:14:41;;;;;;;1.50;0.70;;;;;;;18.37;53.58;101351.63;4935117;29;20035;-53
2022/07/04 03:17:07;;;;;;;1.20;0.68;;;;;;;18.14;54.33;101364.25;4933711;29;20035;-53
2022/07/04 03:19:33;;;;;;;1.80;0.50;;;;;;;17.83;55.03;101362.88;4933900;29;20115;-54
2022/07/04 03:21:59;;;;;;;1.55;0.70;;;;;;;17.66;55.47;101360.09;4934935;29;20034;-54
2022/07/04 03:24:25;;;;;;;2.55;1.00;;;;;;;17.42;56.33;101356.59;4933802;29;20480;-53
2022/07/04 03:26:52;;;;;;;2.10;0.80;;;;;;;17.33;57.21;101362.66;4934475;29;20039;-54
2022/07/04 03:29:18;;;;;;;2.55;0.80;;;;;;;17.01;57.82;101357.63;4933829;29;20024;-52
2022/07/04 03:31:44;;;;;;;1.50;0.85;;;;;;;16.89;58.68;101357.63;4934721;29;20031;-54
2022/07/04 03:34:11;;;;;;;1.67;0.80;;;;;;;16.84;58.78;101359.38;4932954;29;20028;-53
2022/07/04 03:36:37;;;;;;;1.20;0.70;;;;;;;16.75;58.97;101358.06;4934320;29;20035;-53
2022/07/04 03:39:03;;;;;;;2.60;1.00;;;;;;;16.77;59.09;101358.69;4933265;29;20027;-55
2022/07/04 03:41:29;;;;;;;3.88;0.90;;;;;;;16.58;59.52;101356.03;4932986;29;20119;-54
2022/07/04 03:43:56;;;;;;;4.00;0.90;;;;;;;16.40;60.15;101353.41;4934228;29;20027;-51
2022/07/04 03:46:22;;;;;;;2.92;1.20;;;;;;;16.44;60.06;101370.00;4934209;29;20062;-53
2022/07/04 03:48:48;;;;;;;1.10;0.90;;;;;;;16.15;60.90;101377.06;4932753;29;20028;-53
2022/07/04 03:51:14;;;;;;;0.98;0.88;;;;;;;16.37;60.14;101375.47;4935870;29;20433;-54
2022/07/04 03:53:41;;;;;;;1.40;0.90;;;;;;;16.13;61.30;101373.78;4953601;28;20114;-53
2022/07/04 03:56:08;;;;;;;1.17;0.80;;;;;;;16.27;60.96;101380.66;4951984;28;20039;-54
2022/07/04 03:58:34;;;;;;;2.47;0.90;;;;;;;16.18;60.97;101380.13;4953661;28;20027;-54
2022/07/04 04:01:01;;;;;;;2.72;0.88;;;;;;;16.10;61.26;101377.75;4951470;29;20070;-51
2022/07/04 04:06:11;;;;;;;2.63;1.10;;;;;;;15.76;62.37;101380.06;4950881;29;20062;-53
2022/07/04 04:08:37;;;;;;;2.88;1.00;;;;;;;15.75;62.15;101375.72;4940370;28;20391;-54
2022/07/04 04:11:04;;;;;;;2.50;1.00;;;;;;;15.64;62.58;101383.75;4945802;28;20019;-53
2022/07/04 04:13:30;;;;;;;2.08;1.10;;;;;;;15.61;62.54;101382.31;4953353;29;20035;-53
2022/07/04 04:15:56;;;;;;;3.13;1.45;;;;;;;15.67;62.50;101380.63;4957021;28;20035;-53
2022/07/04 04:18:22;;;;;;;3.33;1.80;;;;;;;15.69;62.28;101392.00;4952062;28;20023;-54
2022/07/04 04:20:48;;;;;;;5.38;1.70;;;;;;;15.61;62.55;101395.00;4934382;29;20028;-54
2022/07/04 04:23:15;;;;;;;2.50;1.52;;;;;;;15.53;62.83;101394.22;4946793;28;20035;-54
2022/07/04 04:25:41;;;;;;;4.32;1.60;;;;;;;15.60;62.63;101391.44;4956642;28;20034;-53
2022/07/04 04:28:07;;;;;;;4.32;1.33;;;;;;;15.40;63.41;101399.78;4950206;29;20030;-53
2022/07/04 04:30:33;;;;;;;4.82;1.35;;;;;;;15.49;62.55;101398.44;4957164;29;20035;-53
2022/07/04 04:32:59;;;;;;;10.68;7.72;;;;;;;15.50;62.67;101402.78;4957090;29;20031;-54
2022/07/04 04:35:26;;;;;;;5.00;2.63;;;;;;;15.57;62.56;101398.13;4957089;29;20028;-54
2022/07/04 04:37:52;;;;;;;3.42;2.40;;;;;;;15.38;63.47;101401.03;4956620;29;20031;-54
2022/07/04 04:40:18;;;;;;;5.07;3.85;;;;;;;15.49;62.77;101400.28;4955364;29;20081;-54
2022/07/04 04:42:45;;;;;;;5.75;4.03;;;;;;;15.35;63.19;101405.03;4941429;28;20385;-52
2022/07/04 04:45:11;;;;;;;3.05;2.35;;;;;;;15.28;63.43;101404.28;4942847;29;20038;-55
2022/07/04 04:47:37;;;;;;;3.35;2.17;;;;;;;15.39;63.11;101414.31;4954141;28;20050;-53
2022/07/04 04:50:03;;;;;;;3.97;1.42;;;;;;;15.42;63.10;101407.66;4939552;29;20027;-53
2022/07/04 04:52:30;;;;;;;2.25;1.20;;;;;;;15.42;62.75;101416.56;4937171;29;20047;-54
2022/07/04 04:54:57;;;;;;;3.08;1.50;;;;;;;15.40;62.82;101413.28;4938973;29;20035;-54
2022/07/04 04:57:23;;;;;;;5.03;1.85;;;;;;;15.33;63.28;101415.22;4936989;29;20027;-54
2022/07/04 04:59:49;;;;;;;4.10;1.92;;;;;;;15.25;63.62;101415.50;4946912;29;20035;-53
2022/07/04 05:02:15;;;;;;;5.82;1.88;;;;;;;15.25;63.79;101410.09;4954844;28;20035;-54
2022/07/04 05:04:41;;;;;;;2.53;1.60;;;;;;;15.18;64.04;101404.78;4955121;28;20467;-54
2022/07/04 05:07:07;;;;;;;3.97;2.83;;;;;;;15.16;63.91;101404.19;4955997;28;20042;-54
2022/07/04 05:09:34;;;;;;;3.80;2.88;;;;;;;15.26;63.62;101409.06;4954098;28;20027;-53
2022/07/04 05:12:00;;;;;;;2.72;2.13;;;;;;;15.34;63.41;101403.38;4955821;28;20546;-53
2022/07/04 05:14:26;;;;;;;2.92;1.73;;;;;;;15.26;63.41;101406.34;4947425;28;20027;-53
2022/07/04 05:16:52;;;;;;;4.68;1.75;;;;;;;15.22;64.01;101410.56;4955955;28;20114;-55
2022/07/04 05:19:18;;;;;;;2.70;1.60;;;;;;;15.23;64.01;101417.59;4954929;28;20100;-54
2022/07/04 05:21:45;;;;;;;1.48;1.15;;;;;;;15.28;63.82;101431.25;4956293;28;20031;-54
2022/07/04 05:24:11;;;;;;;2.95;1.13;;;;;;;15.10;64.53;101415.00;4955105;28;20027;-53
2022/07/04 05:26:37;;;;;;;3.40;1.15;;;;;;;15.04;64.58;101420.25;4955914;28;20090;-53
2022/07/04 05:29:04;;;;;;;6.32;1.67;;;;;;;14.95;65.00;101416.19;4954177;29;20280;-54
2022/07/04 05:31:30;;;;;;;4.20;1.23;;;;;;;14.99;65.10;101413.88;4946608;28;20115;-53
2022/07/04 05:33:57;;;;;;;2.35;1.25;;;;;;;15.22;64.28;101415.97;4952299;28;20471;-54
2022/07/04 05:36:24;;;;;;;2.55;1.67;;;;;;;15.23;64.50;101414.91;4954784;28;20035;-54
2022/07/04 05:38:51;;;;;;;1.85;1.23;;;;;;;15.32;64.28;101408.16;4953220;28;20059;-53
2022/07/04 05:41:18;;;;;;;6.57;1.70;;;;;;;15.24;64.58;101409.28;4971257;28;20121;-55
2022/07/04 05:43:44;;;;;;;2.78;1.33;;;;;;;15.13;65.11;101412.72;4973696;28;20049;-53
2022/07/04 05:46:10;;;;;;;4.45;1.20;;;;;;;14.99;65.71;101406.63;4974903;28;20106;-53
2022/07/04 05:48:37;;;;;;;5.05;2.50;;;;;;;15.02;65.62;101410.75;4958944;28;20106;-54
2022/07/04 05:51:03;;;;;;;4.07;1.80;;;;;;;15.01;65.83;101409.91;4953074;28;20024;-52
2022/07/04 05:53:30;;;;;;;4.82;2.00;;;;;;;15.21;65.15;101412.44;4954105;29;20126;-53
2022/07/04 05:55:56;;;;;;;3.35;1.98;;;;;;;15.05;65.52;101411.13;4955468;29;20031;-53
2022/07/04 05:58:22;;;;;;;4.07;2.50;;;;;;;15.20;64.97;101404.56;4952823;28;20039;-54
2022/07/04 06:00:48;;;;;;;3.72;1.38;;;;;;;15.14;65.58;101406.25;4936066;29;20906;-53
2022/07/04 06:03:14;;;;;;;2.13;1.48;;;;;;;15.08;65.60;101409.03;4936229;29;20040;-53
2022/07/04 06:05:40;;;;;;;3.78;1.38;;;;;;;15.15;65.70;101407.09;4942090;29;20067;-53
2022/07/04 06:08:07;;;;;;;3.08;1.23;;;;;;;14.99;66.10;101393.16;4936385;29;20031;-53
2022/07/04 06:10:33;;;;;;;2.30;1.33;;;;;;;15.00;66.34;101391.28;4936336;29;20039;-51
2022/07/04 06:12:59;;;;;;;2.35;1.50;;;;;;;15.13;65.93;101387.63;4936361;29;20023;-54
2022/07/04 06:15:26;;;;;;;3.95;1.25;;;;;;;15.15;65.91;101390.91;4957455;28;20032;-53
2022/07/04 06:17:52;;;;;;;3.55;1.42;;;;;;;14.94;67.00;101394.88;4945622;28;20030;-54
2022/07/04 06:20:19;;;;;;;2.65;1.60;;;;;;;15.00;66.97;101389.41;4955220;29;20487;-53
2022/07/04 06:22:47;;;;;;;4.20;1.30;;;;;;;14.94;67.28;101393.00;4954856;29;20046;-52
2022/07/04 06:25:15;;;;;;;2.72;1.38;;;;;;;14.89;67.79;101390.13;4966631;28;20038;-53
2022/07/04 06:27:42;;;;;;;1.77;1.27;;;;;;;15.10;67.01;101380.78;4973993;28;20027;-53
2022/07/04 06:30:10;;;;;;;2.67;1.40;;;;;;;15.20;66.72;101382.97;4942907;28;20027;-54
2022/07/04 06:32:44;;;;;;;5.00;2.38;;;;;;;15.05;67.20;101384.19;4950579;29;20027;-54
2022/07/04 06:37:56;;;;;;;2.88;1.30;;;;;;;14.92;68.06;101375.38;5017169;23;20061;-53
2022/07/04 06:40:23;;;;;;;1.92;1.52;;;;;;;14.83;68.65;101374.03;5012946;28;20386;-54
2022/07/04 06:42:50;;;;;;;3.25;1.40;;;;;;;14.67;69.21;101373.53;5013100;28;20470;-53
2022/07/04 06:45:17;;;;;;;2.50;1.63;;;;;;;14.80;68.94;101375.28;5019147;28;20061;-56
2022/07/04 06:47:43;;;;;;;2.88;1.67;;;;;;;14.84;69.04;101373.78;5032459;28;20025;-56
2022/07/04 06:50:10;;;;;;;2.35;1.50;;;;;;;14.64;69.85;101371.25;5014100;28;20152;-56
2022/07/04 06:52:36;;;;;;;2.88;1.40;;;;;;;14.61;70.28;101384.38;5012751;28;20076;-56
2022/07/04 06:55:02;;;;;;;2.03;1.40;;;;;;;14.63;70.00;101380.38;5012636;28;20132;-56
2022/07/04 06:57:28;;;;;;;2.90;1.30;;;;;;;14.77;69.46;101378.44;5012558;28;20013;-56
2022/07/04 06:59:55;;;;;;;3.75;1.30;;;;;;;14.71;69.48;101380.13;5027637;28;20060;-56
2022/07/04 07:02:21;;;;;;;1.42;1.30;;;;;;;14.64;69.89;101386.59;5032448;28;20064;-56
2022/07/04 07:04:47;;;;;;;3.45;1.58;;;;;;;14.77;69.52;101381.94;5032401;28;20032;-56
2022/07/04 07:07:13;;;;;;;2.78;1.38;;;;;;;14.88;69.18;101385.78;5032324;28;20025;-56
2022/07/04 07:09:39;;;;;;;3.75;1.67;;;;;;;14.95;69.07;101383.84;5032293;28;20021;-56
2022/07/04 07:12:06;;;;;;;2.80;1.52;;;;;;;15.09;68.56;101372.94;5028005;28;20029;-56
2022/07/04 07:14:33;;;;;;;4.03;1.20;;;;;;;14.96;69.00;101380.09;5012357;28;20041;-56
2022/07/04 07:16:59;;;;;;;3.13;1.48;;;;;;;14.89;69.37;101384.75;5012269;28;20474;-56
2022/07/04 07:19:25;;;;;;;3.03;1.63;;;;;;;14.71;70.11;101382.84;5011933;28;20034;-56
2022/07/04 07:21:52;;;;;;;3.40;1.80;;;;;;;14.74;70.16;101397.72;5020062;28;20067;-56
2022/07/04 07:24:18;;;;;;;2.42;1.65;;;;;;;14.76;70.21;101392.91;5012310;28;20033;-56
2022/07/04 07:26:44;;;;;;;2.53;1.42;;;;;;;14.55;71.14;101386.06;5025796;28;20567;-56
2022/07/04 07:29:10;;;;;;;2.50;1.20;;;;;;;14.57;71.06;101389.34;5016834;28;20056;-56
2022/07/04 07:31:37;;;;;;;2.13;1.33;;;;;;;14.68;70.80;101390.50;5012275;28;20030;-56
2022/07/04 07:34:03;;;;;;;4.72;1.60;;;;;;;14.75;70.45;101391.28;5011760;28;20100;-56
2022/07/04 07:36:29;;;;;;;3.28;1.65;;;;;;;14.84;70.00;101389.16;5011805;28;20046;-56
2022/07/04 07:38:55;;;;;;;2.55;1.52;;;;;;;14.79;70.24;101389.81;5012262;28;20470;-56
2022/07/04 07:41:22;;;;;;;1.85;1.42;;;;;;;14.94;69.74;101384.09;5012045;28;20052;-56
2022/07/04 07:43:48;;;;;;;2.88;2.00;;;;;;;14.90;70.18;101386.38;5012090;28;20037;-56
2022/07/04 07:46:14;;;;;;;2.28;1.50;;;;;;;14.88;70.29;101382.25;5011320;28;20034;-56
2022/07/04 07:48:40;;;;;;;2.22;1.42;;;;;;;14.88;70.48;101396.56;5011595;28;20026;-56
2022/07/04 07:51:06;;;;;;;1.75;1.02;;;;;;;14.87;70.42;101392.19;5012325;28;20114;-56
2022/07/04 07:53:33;;;;;;;2.08;0.95;;;;;;;14.80;70.47;101383.34;5012084;28;20125;-56
2022/07/04 07:55:59;;;;;;;6.30;1.50;;;;;;;14.89;70.26;101387.44;5011693;28;20040;-56
2022/07/04 07:58:25;;;;;;;3.13;1.15;;;;;;;14.88;70.16;101388.50;5011519;28;20018;-56
2022/07/04 08:00:51;;;;;;;1.98;1.52;;;;;;;15.08;69.24;101385.59;5011946;28;20408;-56
2022/07/04 08:06:02;;;;;;;2.15;1.23;;;;;;;15.01;69.88;101379.44;5014779;28;20045;-56
2022/07/04 08:08:28;;;;;;;3.17;1.05;;;;;;;15.15;69.20;101385.50;5012063;28;20025;-56
2022/07/04 08:10:55;;;;;;;3.00;1.33;;;;;;;15.10;69.15;101377.25;5011689;28;20022;-56
2022/07/04 08:13:21;;;;;;;1.48;0.93;;;;;;;15.40;68.35;101377.38;5011751;28;20037;-56
2022/07/04 08:15:47;;;;;;;4.50;1.10;;;;;;;15.22;68.94;101376.34;5011457;28;20057;-56
2022/07/04 08:18:14;;;;;;;1.80;0.90;;;;;;;15.40;68.65;101375.50;5012065;28;20026;-56
2022/07/04 08:20:40;;;;;;;1.65;0.95;;;;;;;15.38;68.38;101371.38;5011339;28;20041;-56
2022/07/04 08:23:07;;;;;;;1.92;1.10;;;;;;;15.43;68.12;101374.22;5012040;28;20105;-56
2022/07/04 08:25:33;;;;;;;1.73;1.00;;;;;;;15.56;67.88;101368.69;5015278;28;20050;-56
2022/07/04 08:27:59;;;;;;;1.85;0.77;;;;;;;15.64;67.82;101373.78;5031497;28;20363;-56
2022/07/04 08:30:25;;;;;;;2.05;1.00;;;;;;;15.72;67.67;101361.88;5031047;28;20436;-56
2022/07/04 08:32:51;;;;;;;1.83;1.08;;;;;;;15.68;67.76;101366.91;5031287;28;20026;-56
2022/07/04 08:35:18;;;;;;;0.93;0.80;;;;;;;15.70;67.91;101363.97;5031204;28;20068;-56
2022/07/04 08:37:44;;;;;;;2.55;1.30;;;;;;;15.39;68.82;101363.06;5021823;28;20140;-55
2022/07/04 08:40:11;;;;;;;1.50;0.82;;;;;;;15.56;68.33;101363.28;5011504;28;20026;-56
2022/07/04 08:42:39;;;;;;;2.72;1.00;;;;;;;15.60;68.32;101367.16;5011625;28;20026;-56
2022/07/04 08:45:06;;;;;;;0.88;0.75;;;;;;;15.74;67.25;101362.47;5011049;28;20125;-56
2022/07/04 08:47:35;;;;;;;2.05;0.65;;;;;;;15.64;67.78;101373.78;5010812;28;20030;-56
2022/07/04 08:50:12;;;;;;;0.80;0.63;;;;;;;15.54;68.44;101370.78;5011351;28;20030;-56
2022/07/04 08:52:51;;;;;;;2.13;0.80;;;;;;;15.35;69.06;101371.84;5011506;28;20037;-56
2022/07/04 08:58:31;;;;;;;1.67;0.88;;;;;;;15.67;68.16;101361.75;4978311;28;20603;-56
2022/07/04 09:01:04;;;;;;;1.75;0.73;;;;;;;15.69;68.39;101357.75;5010979;28;20037;-56
2022/07/04 09:03:31;;;;;;;1.20;0.88;;;;;;;15.68;68.32;101349.88;5011448;28;20113;-56
2022/07/04 09:05:58;;;;;;;1.20;0.75;;;;;;;15.67;68.43;101350.94;5011026;28;20030;-55
2022/07/04 09:08:25;;;;;;;1.58;1.10;;;;;;;15.80;68.21;101353.47;5011243;28;20083;-56
2022/07/04 09:10:53;;;;;;;2.58;0.85;;;;;;;15.88;68.23;101352.31;5011982;28;20022;-55
2022/07/04 09:13:20;;;;;;;2.28;1.10;;;;;;;15.82;68.41;101348.66;5014662;28;20041;-55
2022/07/04 09:15:49;;;;;;;1.30;0.80;;;;;;;15.79;68.70;101349.94;5014171;28;20022;-56
2022/07/04 09:18:33;;;;;;;1.30;0.75;;;;;;;15.51;69.94;101355.88;5014685;28;20036;-55
2022/07/04 09:21:02;;;;;;;1.92;0.68;;;;;;;15.51;70.03;101363.97;5014586;28;20052;-55
2022/07/04 09:23:33;;;;;;;1.40;0.63;;;;;;;15.44;70.32;101360.53;5014650;28;20029;-55
2022/07/04 09:26:20;;;;;;;1.23;1.00;;;;;;;15.53;70.41;101355.63;5021586;28;20022;-55
2022/07/04 09:28:57;;;;;;;2.05;0.95;;;;;;;15.69;69.77;101352.34;5024492;28;20032;-55
2022/07/04 09:31:28;;;;;;;1.88;0.75;;;;;;;15.63;69.53;101358.66;5014339;28;20056;-55
2022/07/04 09:33:59;;;;;;;1.67;0.90;;;;;;;15.62;69.52;101350.78;5014373;28;20030;-55
2022/07/04 09:36:28;;;;;;;3.00;0.80;;;;;;;15.71;69.19;101350.28;5013863;28;20050;-56
2022/07/04 09:39:14;;;;;;;1.38;0.75;;;;;;;15.63;69.17;101347.88;5014282;28;20029;-55
2022/07/04 09:41:55;;;;;;;1.58;0.65;;;;;;;15.58;69.43;101347.69;5014211;28;20474;-55
2022/07/04 09:44:23;;;;;;;1.63;0.70;;;;;;;15.65;69.48;101353.03;5013873;28;20038;-55
2022/07/04 09:46:50;;;;;;;0.98;0.80;;;;;;;15.61;69.39;101343.72;5012940;28;20025;-56
2022/07/04 09:49:16;;;;;;;2.63;0.70;;;;;;;15.73;68.84;101350.03;5014062;28;20088;-55
2022/07/04 09:51:48;;;;;;;0.68;0.68;;;;;;;15.59;69.97;101350.16;5014029;28;20029;-55
2022/07/04 09:54:30;;;;;;;1.08;0.70;;;;;;;15.62;69.64;101350.78;5014005;28;20026;-56
2022/07/04 09:56:59;;;;;;;2.08;0.77;;;;;;;15.46;70.08;101352.19;4993905;28;20046;-55
2022/07/04 09:59:27;;;;;;;2.92;0.80;;;;;;;15.50;70.65;101356.94;5012860;28;20080;-55
2022/07/04 10:02:16;;;;;;;1.83;0.80;;;;;;;15.53;70.56;101356.47;5012210;28;20371;-55
2022/07/04 10:04:51;;;;;;;1.65;0.80;;;;;;;15.57;70.82;101354.13;4994328;28;20030;-56
2022/07/04 10:07:37;;;;;;;0.77;0.57;;;;;;;15.46;71.40;101353.03;4997515;28;20032;-55
2022/07/04 10:10:24;;;;;;;;;;;;;;;15.41;71.33;101344.78;5014468;28;20034;-55
2022/07/04 10:12:52;;;;;;;1.15;0.80;;;;;;;15.32;71.86;101338.88;5011166;28;19917;-55
2022/07/04 10:15:20;;;;;;;1.67;0.80;;;;;;;15.27;72.19;101343.31;5013321;28;20040;-56
2022/07/04 10:17:46;;;;;;;1.58;0.80;;;;;;;15.37;71.79;101340.88;5012228;28;20056;-56
2022/07/04 10:20:14;;;;;;;1.08;0.77;;;;;;;15.29;72.09;101342.00;5012440;28;20080;-56
2022/07/04 10:22:40;;;;;;;2.58;0.70;;;;;;;15.52;71.66;101335.09;5012779;28;20105;-56
2022/07/04 10:25:08;;;;;;;1.45;0.70;;;;;;;15.56;71.38;101339.81;5007940;28;20057;-55
2022/07/04 10:27:35;;;;;;;1.13;0.98;;;;;;;15.49;71.56;101340.94;4997125;28;20033;-56
2022/07/04 10:30:06;;;;;;;1.92;0.82;;;;;;;15.51;71.40;101344.25;5013363;28;20046;-55
2022/07/04 10:32:34;;;;;;;1.52;0.90;;;;;;;15.63;71.38;101339.78;5011909;28;20056;-55
2022/07/04 10:35:00;;;;;;;0.80;0.80;;;;;;;15.42;71.87;101338.34;5013014;28;20026;-55
2022/07/04 10:38:18;;;;;;;1.13;0.73;;;;;;;15.39;71.94;101343.38;5011219;28;20088;-55
2022/07/04 10:40:50;;;;;;;1.23;0.70;;;;;;;15.29;72.38;101341.19;4957702;28;20037;-55
2022/07/04 10:43:34;;;;;;;0.75;0.52;;;;;;;15.33;72.44;101350.50;5009917;28;20020;-55
2022/07/04 10:46:23;;;;;;;0.90;0.40;;;;;;;15.37;72.13;101351.66;5012089;28;20083;-55
2022/07/04 10:48:53;;;;;;;1.88;0.50;;;;;;;15.42;72.07;101341.03;5003437;28;20029;-55
2022/07/04 10:51:39;;;;;;;3.33;0.70;;;;;;;15.28;72.79;101334.97;5013132;28;20038;-55
2022/07/04 10:54:07;;;;;;;1.45;0.60;;;;;;;15.08;74.00;101338.94;5011889;28;20037;-55
2022/07/04 10:56:45;;;;;;;1.58;0.70;;;;;;;15.24;73.46;101335.66;5010571;28;20037;-55
2022/07/04 10:59:16;;;;;;;1.77;0.70;;;;;;;15.13;74.01;101339.09;5012781;28;20039;-55
2022/07/04 11:01:51;;;;;;;0.82;0.70;;;;;;;15.03;73.99;101340.41;5011661;28;20059;-55
2022/07/04 11:04:35;;;;;;;;;;;;;;;15.18;73.53;101328.47;5013441;28;20034;-55
2022/07/04 11:07:02;;;;;;;0.70;0.68;;;;;;;15.27;73.27;101324.44;4999963;28;20362;-55
2022/07/04 11:09:28;;;;;;;2.13;0.75;;;;;;;15.32;73.08;101330.78;4992662;28;20030;-55
2022/07/04 11:11:57;;;;;;;2.03;0.80;;;;;;;14.85;74.67;101323.41;5003480;28;20037;-55
2022/07/04 11:14:40;;;;;;;0.90;0.70;;;;;;;14.86;74.67;101320.47;4993070;28;20033;-55
2022/07/04 11:17:14;;;;;;;1.80;0.80;;;;;;;14.81;74.95;101319.50;5004703;28;20033;-55
2022/07/04 11:19:41;;;;;;;1.50;0.70;;;;;;;14.72;75.54;101321.69;5012759;28;20030;-55
2022/07/04 11:22:10;;;;;;;1.55;0.70;;;;;;;14.85;74.79;101315.31;5010406;28;20470;-55
2022/07/04 11:24:38;;;;;;;1.63;0.60;;;;;;;14.89;74.72;101309.28;5008574;28;20120;-54
2022/07/04 11:27:09;;;;;;;1.33;0.52;;;;;;;14.83;75.00;101312.88;5010015;28;20072;-55
2022/07/04 11:29:36;;;;;;;1.80;0.63;;;;;;;14.84;74.90;101316.38;5012540;28;20037;-55
2022/07/04 11:32:07;;;;;;;0.95;0.63;;;;;;;14.95;74.38;101313.75;5010603;28;20108;-55
2022/07/04 11:34:33;;;;;;;1.08;0.60;;;;;;;14.87;74.61;101321.31;4994255;28;20034;-55
2022/07/04 11:37:02;;;;;;;1.48;0.57;;;;;;;14.99;73.95;101324.91;5010862;28;20133;-55
2022/07/04 11:39:29;;;;;;;1.00;0.73;;;;;;;14.93;74.27;101318.53;5000982;28;20038;-55
2022/07/04 11:47:36;;;;;;;1.30;0.70;;;;;;;14.97;74.43;101316.22;5002786;28;20092;-54
2022/07/04 11:50:19;;;;;;;1.83;1.00;;;;;;;15.08;74.27;101311.97;5012094;28;20034;-55
2022/07/04 11:52:53;;;;;;;1.58;0.75;;;;;;;15.17;74.09;101321.41;5012250;28;20049;-55